createdAt,value
2019-01-19T00:01:40.289Z,16.75
2019-01-19T00:04:29.553Z,16.70
2019-01-19T00:07:01.177Z,16.55
2019-01-19T00:10:06.149Z,16.30
2019-01-19T00:12:53.085Z,16.27
2019-01-19T00:15:24.722Z,16.40
2019-01-19T00:18:14.745Z,15.40
2019-01-19T00:20:52.470Z,15.30
2019-01-19T00:23:30.021Z,15.80
2019-01-19T00:26:01.668Z,14.90
2019-01-19T00:28:33.305Z,14.85
2019-01-19T00:31:04.964Z,15.00
2019-01-19T00:33:36.617Z,15.33
2019-01-19T00:36:14.501Z,14.47
2019-01-19T00:38:52.097Z,14.90
2019-01-19T00:41:43.388Z,14.50
2019-01-19T00:44:14.953Z,14.60
2019-01-19T00:46:54.789Z,14.90
2019-01-19T00:49:23.357Z,14.10
2019-01-19T00:52:14.252Z,14.40
2019-01-19T00:54:46.161Z,14.53
2019-01-19T00:57:34.311Z,15.25
2019-01-19T01:00:04.703Z,15.13
2019-01-19T01:02:45.086Z,14.33
2019-01-19T01:05:25.691Z,13.97
2019-01-19T01:08:09.006Z,14.98
2019-01-19T01:10:58.529Z,15.40
2019-01-19T01:13:44.877Z,14.10
2019-01-19T01:16:22.371Z,14.87
2019-01-19T01:18:56.787Z,14.58
2019-01-19T01:21:46.038Z,15.17
2019-01-19T01:24:35.888Z,15.10
2019-01-19T01:27:25.799Z,15.80
2019-01-19T01:30:03.260Z,15.50
2019-01-19T01:32:43.916Z,15.30
2019-01-19T01:35:38.363Z,15.60
2019-01-19T01:38:26.408Z,15.80
2019-01-19T01:41:26.760Z,15.30
2019-01-19T01:44:01.370Z,15.72
2019-01-19T01:46:52.360Z,15.68
2019-01-19T01:49:29.791Z,16.70
2019-01-19T01:52:10.345Z,16.90
2019-01-19T01:54:44.434Z,17.17
2019-01-19T01:57:16.041Z,17.90
2019-01-19T01:59:56.433Z,17.00
2019-01-19T02:02:39.667Z,17.50
2019-01-19T02:05:17.166Z,16.97
2019-01-19T02:07:54.726Z,16.80
2019-01-19T02:10:38.105Z,17.35
2019-01-19T02:13:18.189Z,18.07
2019-01-19T02:15:58.037Z,17.57
2019-01-19T02:18:35.125Z,17.60
2019-01-19T02:21:12.736Z,17.70
2019-01-19T02:23:47.208Z,18.87
2019-01-19T02:26:21.847Z,17.70
2019-01-19T02:29:14.174Z,17.50
2019-01-19T02:31:54.480Z,16.93
2019-01-19T02:34:29.036Z,16.97
2019-01-19T02:37:03.465Z,17.13
2019-01-19T02:39:57.800Z,18.95
2019-01-19T02:42:35.044Z,17.30
2019-01-19T02:45:29.023Z,18.17
2019-01-19T02:48:19.876Z,17.70
2019-01-19T02:50:54.426Z,18.20
2019-01-19T02:53:41.006Z,17.37
2019-01-19T02:56:33.700Z,17.07
2019-01-19T02:59:05.505Z,16.87
2019-01-19T03:01:37.053Z,16.40
2019-01-19T03:04:20.584Z,16.90
2019-01-19T03:07:01.381Z,15.23
2019-01-19T03:09:51.065Z,15.33
2019-01-19T03:12:31.656Z,16.10
2019-01-19T03:15:35.128Z,16.93
2019-01-19T03:18:15.748Z,16.73
2019-01-19T03:20:52.949Z,17.67
2019-01-19T03:23:52.961Z,18.33
2019-01-19T03:26:27.441Z,16.43
2019-01-19T03:29:11.148Z,17.48
2019-01-19T03:31:54.783Z,17.70
2019-01-19T03:34:37.781Z,19.20
2019-01-19T03:37:17.953Z,17.62
2019-01-19T03:40:01.959Z,18.07
2019-01-19T03:42:39.140Z,17.30
2019-01-19T03:45:19.355Z,17.93
2019-01-19T03:47:56.988Z,15.53
2019-01-19T03:50:31.177Z,14.65
2019-01-19T03:53:05.509Z,14.50
2019-01-19T03:55:58.265Z,14.93
2019-01-19T03:58:48.025Z,13.78
2019-01-19T04:01:41.045Z,16.13
2019-01-19T04:04:27.486Z,14.10
2019-01-19T04:07:17.593Z,14.10
2019-01-19T04:10:19.632Z,14.43
2019-01-19T04:12:54.126Z,14.85
2019-01-19T04:16:00.546Z,14.70
2019-01-19T04:18:47.317Z,14.83
2019-01-19T04:21:33.937Z,14.17
2019-01-19T04:24:05.600Z,14.80
2019-01-19T04:26:35.748Z,14.18
2019-01-19T04:29:04.483Z,14.23
2019-01-19T04:31:33.101Z,14.53
2019-01-19T04:34:01.887Z,13.67
2019-01-19T04:36:30.678Z,14.33
2019-01-19T04:38:59.792Z,13.35
2019-01-19T04:41:28.298Z,13.22
2019-01-19T04:43:56.850Z,14.47
2019-01-19T04:46:44.786Z,14.33
2019-01-19T04:49:13.348Z,13.97
2019-01-19T04:51:41.929Z,14.87
2019-01-19T04:54:10.501Z,14.10
2019-01-19T04:56:39.074Z,14.30
2019-01-19T04:59:07.556Z,13.63
2019-01-19T05:01:36.122Z,13.53
2019-01-19T05:04:04.749Z,13.10
2019-01-19T05:06:33.306Z,12.23
2019-01-19T05:09:01.783Z,12.23
2019-01-19T05:11:30.361Z,12.47
2019-01-19T05:13:58.917Z,12.63
2019-01-19T05:16:27.400Z,13.70
2019-01-19T05:18:55.883Z,13.00
2019-01-19T05:21:24.822Z,14.20
2019-01-19T05:23:53.731Z,15.03
2019-01-19T05:26:22.302Z,14.96
2019-01-19T05:28:51.037Z,15.00
2019-01-19T05:31:19.609Z,13.43
2019-01-19T05:33:48.090Z,15.00
2019-01-19T05:36:16.709Z,13.63
2019-01-19T05:38:45.256Z,13.37
2019-01-19T05:41:13.837Z,23.87
2019-01-19T05:43:42.317Z,20.40
2019-01-19T05:46:10.897Z,15.38
2019-01-19T05:48:39.445Z,14.20
2019-01-19T05:51:08.027Z,15.27
2019-01-19T05:53:36.583Z,14.07
2019-01-19T05:56:05.227Z,13.13
2019-01-19T05:58:33.845Z,13.73
2019-01-19T06:01:02.412Z,12.60
2019-01-19T06:03:43.550Z,12.90
2019-01-19T06:06:12.317Z,14.03
2019-01-19T06:08:40.868Z,14.67
2019-01-19T06:11:09.464Z,14.77
2019-01-19T06:13:38.016Z,15.48
2019-01-19T06:16:06.508Z,16.30
2019-01-19T06:18:36.151Z,15.45
2019-01-19T06:21:06.717Z,14.68
2019-01-19T06:23:35.377Z,15.90
2019-01-19T06:26:04.204Z,14.87
2019-01-19T06:28:32.773Z,15.53
2019-01-19T06:31:01.393Z,15.87
2019-01-19T06:33:29.982Z,14.30
2019-01-19T06:35:58.479Z,14.30
2019-01-19T06:38:27.054Z,16.87
2019-01-19T06:40:55.609Z,14.07
2019-01-19T06:43:25.025Z,13.80
2019-01-19T06:45:53.573Z,13.90
2019-01-19T06:48:22.147Z,13.00
2019-01-19T06:50:50.706Z,12.73
2019-01-19T06:53:19.213Z,13.13
2019-01-19T06:55:47.697Z,13.70
2019-01-19T06:58:16.202Z,13.62
2019-01-19T07:00:44.769Z,14.97
2019-01-19T07:03:13.288Z,13.20
2019-01-19T07:05:42.111Z,13.60
2019-01-19T07:08:10.649Z,13.22
2019-01-19T07:10:39.149Z,12.95
2019-01-19T07:13:07.737Z,13.60
2019-01-19T07:15:36.281Z,13.35
2019-01-19T07:18:04.856Z,13.47
2019-01-19T07:20:33.468Z,14.13
2019-01-19T07:23:02.009Z,13.98
2019-01-19T07:25:30.557Z,13.70
2019-01-19T07:27:59.100Z,12.70
2019-01-19T07:30:27.596Z,14.90
2019-01-19T07:32:56.095Z,13.65
2019-01-19T07:35:24.738Z,15.03
2019-01-19T07:37:53.290Z,14.05
2019-01-19T07:40:21.924Z,13.68
2019-01-19T07:42:52.119Z,14.18
2019-01-19T07:45:20.718Z,13.13
2019-01-19T07:47:49.280Z,13.60
2019-01-19T07:50:19.017Z,14.10
2019-01-19T07:52:47.628Z,13.40
2019-01-19T07:55:17.752Z,14.03
2019-01-19T07:57:46.459Z,14.03
2019-01-19T08:00:23.891Z,14.20
2019-01-19T08:02:52.511Z,13.80
2019-01-19T08:05:21.081Z,15.17
2019-01-19T08:07:49.555Z,14.50
2019-01-19T08:10:19.986Z,15.60
2019-01-19T08:12:49.071Z,15.23
2019-01-19T08:15:23.179Z,14.20
2019-01-19T08:17:51.729Z,14.20
2019-01-19T08:20:20.451Z,15.63
2019-01-19T08:22:49.184Z,14.53
2019-01-19T08:25:17.820Z,15.70
2019-01-19T08:27:46.713Z,14.73
2019-01-19T08:30:21.241Z,15.25
2019-01-19T08:32:49.778Z,17.30
2019-01-19T08:35:18.777Z,16.20
2019-01-19T08:37:48.070Z,15.53
2019-01-19T08:40:28.784Z,15.23
2019-01-19T08:42:59.104Z,14.87
2019-01-19T08:45:27.673Z,15.00
2019-01-19T08:47:56.220Z,14.60
2019-01-19T08:50:24.821Z,15.25
2019-01-19T08:52:53.294Z,15.20
2019-01-19T08:55:21.787Z,15.20
2019-01-19T08:57:50.328Z,15.63
2019-01-19T09:00:20.266Z,14.80
2019-01-19T09:02:48.888Z,15.23
2019-01-19T09:05:17.521Z,15.90
2019-01-19T09:07:46.133Z,15.85
2019-01-19T09:10:16.742Z,17.57
2019-01-19T09:12:45.420Z,18.07
2019-01-19T09:15:16.087Z,17.27
2019-01-19T09:17:44.643Z,17.60
2019-01-19T09:20:15.519Z,17.70
2019-01-19T09:22:44.134Z,17.95
2019-01-19T09:25:14.638Z,18.43
2019-01-19T09:27:43.109Z,18.27
2019-01-19T09:30:19.873Z,17.17
2019-01-19T09:32:48.503Z,17.87
2019-01-19T09:35:17.917Z,16.25
2019-01-19T09:37:46.979Z,17.00
2019-01-19T09:40:16.806Z,15.83
2019-01-19T09:42:45.890Z,16.50
2019-01-19T09:45:16.897Z,16.52
2019-01-19T09:47:45.520Z,17.27
2019-01-19T09:50:16.117Z,15.53
2019-01-19T09:52:44.664Z,16.40
2019-01-19T09:55:13.502Z,15.60
2019-01-19T09:57:42.185Z,15.40
2019-01-19T10:00:19.475Z,14.07
2019-01-19T10:02:48.032Z,14.15
2019-01-19T10:05:22.179Z,13.80
2019-01-19T10:07:50.736Z,13.50
2019-01-19T10:10:19.439Z,14.38
2019-01-19T10:12:48.183Z,14.20
2019-01-19T10:15:18.259Z,14.00
2019-01-19T10:17:46.880Z,14.13
2019-01-19T10:20:26.993Z,17.15
2019-01-19T10:22:55.537Z,15.03
2019-01-19T10:25:24.489Z,13.40
2019-01-19T10:27:53.125Z,13.77
2019-01-19T10:30:28.765Z,14.73
2019-01-19T10:32:57.389Z,15.10
2019-01-19T10:35:26.141Z,15.37
2019-01-19T10:37:56.525Z,16.00
2019-01-19T10:40:24.986Z,13.78
2019-01-19T10:42:53.654Z,14.70
2019-01-19T10:45:29.100Z,14.30
2019-01-19T10:47:57.709Z,14.50
2019-01-19T10:50:26.269Z,14.20
2019-01-19T10:52:54.883Z,14.58
2019-01-19T10:55:24.508Z,15.10
2019-01-19T10:57:53.052Z,15.23
2019-01-19T11:00:34.782Z,14.47
2019-01-19T11:03:03.937Z,14.30
2019-01-19T11:05:35.735Z,16.03
2019-01-19T11:08:06.458Z,19.37
2019-01-19T11:10:35.978Z,19.50
2019-01-19T11:13:04.658Z,16.57
2019-01-19T11:15:33.405Z,15.08
2019-01-19T11:18:02.036Z,16.70
2019-01-19T11:20:32.160Z,17.20
2019-01-19T11:23:01.585Z,16.23
2019-01-19T11:25:30.664Z,15.50
2019-01-19T11:27:59.222Z,15.32
2019-01-19T11:30:32.413Z,16.42
2019-01-19T11:33:01.113Z,16.50
2019-01-19T11:35:30.322Z,15.50
2019-01-19T11:37:58.991Z,15.85
2019-01-19T11:40:35.349Z,16.12
2019-01-19T11:43:04.848Z,16.10
2019-01-19T11:45:33.328Z,16.60
2019-01-19T11:48:01.892Z,15.60
2019-01-19T11:50:30.505Z,16.12
2019-01-19T11:52:59.145Z,18.60
2019-01-19T11:55:27.694Z,17.40
2019-01-19T11:58:01.224Z,18.00
2019-01-19T12:00:32.310Z,16.70
2019-01-19T12:03:00.962Z,16.70
2019-01-19T12:05:29.580Z,17.70
2019-01-19T12:07:58.147Z,20.00
2019-01-19T12:10:28.965Z,18.60
2019-01-19T12:12:57.737Z,19.83
2019-01-19T12:15:26.892Z,18.25
2019-01-19T12:17:55.711Z,20.20
2019-01-19T12:20:33.279Z,18.30
2019-01-19T12:23:01.900Z,19.70
2019-01-19T12:25:30.584Z,19.80
2019-01-19T12:27:59.217Z,20.15
2019-01-19T12:30:32.300Z,20.95
2019-01-19T12:33:00.806Z,31.50
2019-01-19T12:35:29.799Z,21.47
2019-01-19T12:37:59.804Z,20.10
2019-01-19T12:40:30.088Z,19.27
2019-01-19T12:43:01.296Z,20.00
2019-01-19T12:45:35.615Z,20.43
2019-01-19T12:48:04.452Z,21.75
2019-01-19T12:50:33.970Z,21.80
2019-01-19T12:53:02.533Z,20.77
2019-01-19T12:55:31.151Z,20.17
2019-01-19T12:57:59.792Z,19.77
2019-01-19T13:00:28.906Z,19.12
2019-01-19T13:02:57.733Z,19.30
2019-01-19T13:05:33.158Z,19.92
2019-01-19T13:08:02.245Z,19.75
2019-01-19T13:10:37.021Z,20.17
2019-01-19T13:13:07.028Z,20.20
2019-01-19T13:16:06.051Z,22.90
2019-01-19T13:18:43.302Z,23.63
2019-01-19T13:21:34.260Z,20.17
2019-01-19T13:24:25.590Z,18.70
2019-01-19T13:27:12.093Z,18.87
2019-01-19T13:30:01.866Z,18.63
2019-01-19T13:32:51.433Z,19.03
2019-01-19T13:35:39.570Z,18.12
2019-01-19T13:38:14.142Z,19.30
2019-01-19T13:40:48.895Z,24.83
2019-01-19T13:43:32.207Z,21.60
2019-01-19T13:46:21.754Z,21.07
2019-01-19T13:49:02.010Z,26.97
2019-01-19T13:51:33.763Z,20.73
2019-01-19T13:54:28.071Z,19.50
2019-01-19T13:57:18.000Z,19.05
2019-01-19T13:59:55.210Z,17.95
2019-01-19T14:02:32.730Z,17.30
2019-01-19T14:05:13.408Z,17.90
2019-01-19T14:08:03.042Z,16.37
2019-01-19T14:10:34.948Z,16.73
2019-01-19T14:13:12.289Z,17.30
2019-01-19T14:15:58.269Z,18.55
2019-01-19T14:18:35.666Z,19.73
2019-01-19T14:21:24.037Z,18.85
2019-01-19T14:24:11.152Z,19.33
2019-01-19T14:26:48.425Z,18.23
2019-01-19T14:29:22.699Z,16.80
2019-01-19T14:32:09.321Z,17.70
2019-01-19T14:34:46.741Z,17.00
2019-01-19T14:37:23.844Z,17.48
2019-01-19T14:40:13.441Z,16.05
2019-01-19T14:42:53.986Z,15.90
2019-01-19T14:45:25.664Z,16.05
2019-01-19T14:48:00.220Z,16.40
2019-01-19T14:50:43.670Z,17.00
2019-01-19T14:53:32.742Z,24.07
2019-01-19T14:56:22.243Z,50.58
2019-01-19T14:59:02.796Z,19.60
2019-01-19T15:01:37.088Z,19.80
2019-01-19T15:04:20.545Z,19.80
2019-01-19T15:07:07.134Z,17.47
2019-01-19T15:09:38.722Z,18.10
2019-01-19T15:12:33.120Z,17.27
2019-01-19T15:15:10.619Z,18.07
2019-01-19T15:20:31.031Z,18.63
2019-01-19T15:23:08.281Z,17.10
2019-01-19T15:26:00.659Z,17.20
2019-01-19T15:28:56.026Z,18.05
2019-01-19T15:31:33.562Z,16.67
2019-01-19T15:34:25.391Z,17.57
2019-01-19T15:37:24.340Z,16.47
2019-01-19T15:40:01.672Z,17.10
2019-01-19T15:42:41.731Z,16.48
2019-01-19T15:45:30.693Z,16.27
2019-01-19T15:48:08.493Z,16.42
2019-01-19T15:50:42.669Z,16.30
2019-01-19T15:53:14.231Z,17.80
2019-01-19T15:55:45.881Z,18.10
2019-01-19T15:58:32.541Z,15.97
2019-01-19T16:01:04.210Z,17.05
2019-01-19T16:03:41.703Z,19.45
2019-01-19T16:06:19.566Z,19.70
2019-01-19T16:08:51.192Z,18.40
2019-01-19T16:11:42.496Z,18.60
2019-01-19T16:14:19.811Z,19.25
2019-01-19T16:16:51.457Z,18.70
2019-01-19T16:19:29.038Z,18.20
2019-01-19T16:22:15.532Z,18.63
2019-01-19T16:25:03.908Z,18.20
2019-01-19T16:27:52.356Z,21.27
2019-01-19T16:30:24.053Z,20.57
2019-01-19T16:32:58.289Z,20.37
2019-01-19T16:35:29.904Z,20.67
2019-01-19T16:38:19.989Z,21.50
2019-01-19T16:40:51.950Z,22.52
2019-01-19T16:43:29.423Z,21.67
2019-01-19T16:46:06.984Z,21.15
2019-01-19T16:48:41.406Z,21.67
2019-01-19T16:51:36.098Z,21.90
2019-01-19T16:54:08.016Z,22.50
2019-01-19T16:56:57.526Z,22.03
2019-01-19T16:59:35.400Z,21.37
2019-01-19T17:02:15.766Z,23.00
2019-01-19T17:04:47.323Z,22.30
2019-01-19T17:07:40.078Z,22.20
2019-01-19T17:10:11.639Z,22.10
2019-01-19T17:12:52.210Z,21.70
2019-01-19T17:15:44.841Z,22.00
2019-01-19T17:18:26.451Z,21.90
2019-01-19T17:21:00.881Z,22.13
2019-01-19T17:23:38.454Z,22.62
2019-01-19T17:26:33.862Z,24.12
2019-01-19T17:29:08.062Z,24.27
2019-01-19T17:31:39.706Z,24.97
2019-01-19T17:34:17.008Z,26.27
2019-01-19T17:36:48.561Z,26.80
2019-01-19T17:39:40.203Z,25.37
2019-01-19T17:42:29.949Z,26.13
2019-01-19T17:45:13.041Z,24.95
2019-01-19T17:47:47.347Z,24.70
2019-01-19T17:50:30.964Z,25.82
2019-01-19T17:53:17.537Z,26.07
2019-01-19T17:56:07.054Z,28.07
2019-01-19T17:58:55.154Z,28.53
2019-01-19T18:01:46.151Z,26.30
2019-01-19T18:04:20.780Z,26.30
2019-01-19T18:07:07.624Z,28.30
2019-01-19T18:09:47.515Z,27.73
2019-01-19T18:12:27.018Z,31.30
2019-01-19T18:15:22.737Z,27.73
2019-01-19T18:18:18.699Z,26.03
2019-01-19T18:21:05.344Z,26.77
2019-01-19T18:23:42.569Z,28.30
2019-01-19T18:26:26.040Z,28.95
2019-01-19T18:28:59.310Z,26.97
2019-01-19T18:31:53.190Z,27.50
2019-01-19T18:34:27.526Z,27.42
2019-01-19T18:37:05.309Z,26.27
2019-01-19T18:39:43.152Z,25.87
2019-01-19T18:42:36.157Z,27.87
2019-01-19T18:45:16.750Z,28.90
2019-01-19T18:48:00.737Z,28.47
2019-01-19T18:50:44.761Z,27.00
2019-01-19T18:53:31.061Z,26.83
2019-01-19T18:56:37.350Z,26.00
2019-01-19T18:59:23.589Z,27.45
2019-01-19T19:02:29.832Z,27.62
2019-01-19T19:05:20.738Z,26.87
2019-01-19T19:08:01.087Z,26.73
2019-01-19T19:10:56.494Z,27.93
2019-01-19T19:13:40.488Z,27.40
2019-01-19T19:16:15.551Z,29.95
2019-01-19T19:18:53.085Z,30.97
2019-01-19T19:21:33.845Z,34.33
2019-01-19T19:24:26.255Z,30.03
2019-01-19T19:26:57.899Z,29.92
2019-01-19T19:29:47.425Z,30.20
2019-01-19T19:32:31.173Z,30.72
2019-01-19T19:35:21.008Z,31.70
2019-01-19T19:38:17.828Z,32.20
2019-01-19T19:40:52.684Z,31.52
2019-01-19T19:43:27.238Z,31.37
2019-01-19T19:46:04.906Z,31.27
2019-01-19T19:48:54.142Z,33.70
2019-01-19T19:51:58.824Z,31.80
2019-01-19T19:54:28.020Z,31.83
2019-01-19T19:56:56.918Z,31.20
2019-01-19T19:59:25.541Z,32.47
2019-01-19T20:01:54.052Z,32.47
2019-01-19T20:04:22.774Z,32.90
2019-01-19T20:06:51.509Z,32.80
2019-01-19T20:09:20.075Z,34.67
2019-01-19T20:11:48.951Z,36.00
2019-01-19T20:14:17.503Z,33.37
2019-01-19T20:16:46.074Z,36.30
2019-01-19T20:19:14.631Z,35.40
2019-01-19T20:21:43.353Z,31.97
2019-01-19T20:24:11.981Z,34.53
2019-01-19T20:26:40.569Z,37.05
2019-01-19T20:29:09.120Z,32.87
2019-01-19T20:31:37.775Z,33.67
2019-01-19T20:34:06.386Z,34.10
2019-01-19T20:36:34.958Z,35.23
2019-01-19T20:39:05.086Z,34.37
2019-01-19T20:41:34.213Z,34.48
2019-01-19T20:44:02.688Z,35.00
2019-01-19T20:46:31.185Z,40.33
2019-01-19T20:48:59.743Z,34.73
2019-01-19T20:51:28.309Z,34.67
2019-01-19T20:53:56.870Z,32.67
2019-01-19T20:56:25.381Z,38.10
2019-01-19T20:58:54.071Z,37.65
2019-01-19T21:01:22.662Z,34.30
2019-01-19T21:03:51.246Z,32.73
2019-01-19T21:06:19.812Z,33.08
2019-01-19T21:08:48.425Z,32.83
2019-01-19T21:11:17.090Z,35.40
2019-01-19T21:13:45.662Z,34.10
2019-01-19T21:16:14.397Z,33.88
2019-01-19T21:18:42.942Z,33.93
2019-01-19T21:21:11.523Z,35.07
2019-01-19T21:23:40.070Z,34.43
2019-01-19T21:26:08.674Z,33.78
2019-01-19T21:28:37.233Z,33.40
2019-01-19T21:31:05.773Z,33.23
2019-01-19T21:33:34.337Z,37.95
2019-01-19T21:36:02.990Z,37.20
2019-01-19T21:38:31.593Z,37.63
2019-01-19T21:41:00.237Z,37.17
2019-01-19T21:43:28.810Z,40.87
2019-01-19T21:45:57.373Z,36.73
2019-01-19T21:48:25.901Z,35.40
2019-01-19T21:50:54.480Z,35.85
2019-01-19T21:53:23.042Z,33.40
2019-01-19T21:55:51.525Z,34.85
2019-01-19T21:58:20.200Z,34.92
2019-01-19T22:00:48.807Z,39.90
2019-01-19T22:03:17.377Z,36.30
2019-01-19T22:05:49.848Z,36.28
2019-01-19T22:08:16.172Z,36.07
2019-01-19T22:10:46.436Z,36.33
2019-01-19T22:13:15.072Z,37.63
2019-01-19T22:15:43.560Z,37.85
2019-01-19T22:18:12.061Z,37.13
2019-01-19T22:20:40.906Z,35.70
2019-01-19T22:23:09.481Z,36.00
2019-01-19T22:25:38.173Z,36.40
2019-01-19T22:28:06.746Z,35.87
2019-01-19T22:30:35.284Z,34.67
2019-01-19T22:33:04.106Z,35.17
2019-01-19T22:35:32.790Z,34.50
2019-01-19T22:38:01.377Z,36.10
2019-01-19T22:40:29.957Z,34.92
2019-01-19T22:42:58.583Z,35.63
2019-01-19T22:45:27.250Z,34.05
2019-01-19T22:47:55.914Z,35.75
2019-01-19T22:50:24.586Z,35.45
2019-01-19T22:52:53.313Z,35.43
2019-01-19T22:55:21.841Z,36.80
2019-01-19T22:57:50.394Z,38.23
2019-01-19T23:00:29.479Z,36.87
2019-01-19T23:02:58.192Z,39.50
2019-01-19T23:05:27.013Z,48.60
2019-01-19T23:07:55.585Z,38.48
2019-01-19T23:10:24.224Z,37.90
2019-01-19T23:12:52.809Z,38.90
2019-01-19T23:15:21.293Z,39.42
2019-01-19T23:17:50.043Z,37.97
2019-01-19T23:20:18.763Z,36.90
2019-01-19T23:22:47.363Z,36.48
2019-01-19T23:25:15.944Z,34.40
2019-01-19T23:27:44.584Z,34.33
2019-01-19T23:30:15.756Z,35.13
2019-01-19T23:32:44.336Z,33.78
2019-01-19T23:35:12.965Z,34.00
2019-01-19T23:37:41.536Z,34.63
2019-01-19T23:40:14.397Z,34.78
2019-01-19T23:42:47.120Z,34.30
2019-01-19T23:45:14.893Z,34.83
2019-01-19T23:47:43.379Z,37.05
2019-01-19T23:50:12.024Z,36.65
2019-01-19T23:52:40.646Z,36.43
2019-01-19T23:55:09.281Z,34.95
2019-01-19T23:57:37.762Z,33.48
